KAE weather

Public forecast

Using degrees Fahrenheit for public forecast. Weather courtesy of forecast.io.

Closest aviation weather report (METAR) to Kake Seaplane Base

Closest report is Kake Airport, 1.4 nm (2.5 km) ESE. Retrieved 2020/08/10 13:41 UTC (59 minutes ago):

PAFE 101341Z AUTO 11007KT 10SM FEW016 BKN060 OVC100 12/09 A3011 RMK AO2

Closest aviation forecast (TAF) to Kake Seaplane Base

Closest forecast is Petersburg James A Johnson Airport, 34.4 nm (63.7 km) ESE. Retrieved 2020/08/10 12:39 UTC (2 hours ago):

TAF PAPG 101135Z 1012/1112 22009G14KT P6SM SCT021 OVC026 WS020/23030KT FM101500 22009KT 4SM -SHRA BR OVC015 FM110000 VRB03KT P6SM VCSH OVC040 AMD LTD TO CLD VIS AND WIND 1012/1015